createdAt,value
2018-07-04T00:00:10.527Z,61.74
2018-07-04T00:00:36.665Z,61.74
2018-07-04T00:01:02.830Z,61.44
2018-07-04T00:01:28.990Z,61.64
2018-07-04T00:01:55.132Z,61.74
2018-07-04T00:02:21.278Z,62.02
2018-07-04T00:02:47.410Z,61.74
2018-07-04T00:03:13.550Z,61.74
2018-07-04T00:03:39.698Z,62.12
2018-07-04T00:04:05.861Z,62.31
2018-07-04T00:04:32.023Z,62.51
2018-07-04T00:04:58.164Z,62.31
2018-07-04T00:05:24.297Z,62.22
2018-07-04T00:05:50.439Z,62.12
2018-07-04T00:06:16.623Z,62.12
2018-07-04T00:06:42.790Z,61.93
2018-07-04T00:07:08.943Z,61.64
2018-07-04T00:07:35.091Z,62.22
2018-07-04T00:08:01.229Z,62.51
2018-07-04T00:08:27.369Z,62.41
2018-07-04T00:08:53.506Z,62.7
2018-07-04T00:09:19.651Z,62.7
2018-07-04T00:09:45.783Z,62.7
2018-07-04T00:10:11.920Z,62.22
2018-07-04T00:10:38.056Z,62.6
2018-07-04T00:11:04.195Z,62.51
2018-07-04T00:11:30.328Z,62.7
2018-07-04T00:11:56.495Z,63.09
2018-07-04T00:12:25.866Z,62.96
2018-07-04T00:12:52.009Z,63.09
2018-07-04T00:13:18.146Z,62.99
2018-07-04T00:13:44.287Z,62.6
2018-07-04T00:14:10.459Z,62.6
2018-07-04T00:14:36.615Z,62.76
2018-07-04T00:15:02.760Z,62.48
2018-07-04T00:15:28.905Z,62.66
2018-07-04T00:15:55.061Z,62.48
2018-07-04T00:16:21.220Z,62.57
2018-07-04T00:16:47.363Z,63.24
2018-07-04T00:17:13.496Z,63.24
2018-07-04T00:17:39.661Z,63.15
2018-07-04T00:18:05.822Z,63.54
2018-07-04T00:18:31.968Z,63.54
2018-07-04T00:18:58.133Z,63.44
2018-07-04T00:19:24.269Z,63.63
2018-07-04T00:19:50.459Z,63.54
2018-07-04T00:20:16.569Z,63.54
2018-07-04T00:20:42.714Z,63.06
2018-07-04T00:21:08.896Z,63.34
2018-07-04T00:21:35.031Z,63.24
2018-07-04T00:22:01.200Z,63.92
2018-07-04T00:22:27.336Z,63.63
2018-07-04T00:22:53.479Z,63.44
2018-07-04T00:23:19.615Z,63.34
2018-07-04T00:23:45.756Z,63.24
2018-07-04T00:24:11.890Z,63.44
2018-07-04T00:24:38.034Z,63.63
2018-07-04T00:25:04.169Z,63.54
2018-07-04T00:25:30.308Z,63.44
2018-07-04T00:25:56.446Z,63.54
2018-07-04T00:26:22.587Z,63.21
2018-07-04T00:26:48.733Z,64.08
2018-07-04T00:27:14.867Z,63.7
2018-07-04T00:27:41.008Z,64.4
2018-07-04T00:28:07.168Z,64.56
2018-07-04T00:28:33.308Z,64.37
2018-07-04T00:28:59.462Z,64.28
2018-07-04T00:29:25.592Z,64.28
2018-07-04T00:29:51.721Z,63.89
2018-07-04T00:30:17.869Z,63.79
2018-07-04T00:30:44.033Z,63.98
2018-07-04T00:31:10.168Z,63.92
2018-07-04T00:31:36.306Z,63.54
2018-07-04T00:32:02.451Z,63.82
2018-07-04T00:32:28.590Z,63.79
2018-07-04T00:32:54.749Z,64.08
2018-07-04T00:33:20.879Z,63.98
2018-07-04T00:33:47.025Z,64.08
2018-07-04T00:34:13.184Z,63.98
2018-07-04T00:34:39.316Z,63.98
2018-07-04T00:35:05.451Z,64.08
2018-07-04T00:35:31.595Z,64.37
2018-07-04T00:35:57.727Z,64.28
2018-07-04T00:36:23.889Z,64.18
2018-07-04T00:36:50.028Z,64.28
2018-07-04T00:37:16.161Z,64.28
2018-07-04T00:37:42.338Z,64.28
2018-07-04T00:38:08.476Z,64.28
2018-07-04T00:38:34.611Z,64.28
2018-07-04T00:39:00.744Z,64.18
2018-07-04T00:39:26.889Z,64.47
2018-07-04T00:39:53.058Z,64.47
2018-07-04T00:40:19.221Z,64.18
2018-07-04T00:40:45.379Z,64.37
2018-07-04T00:41:11.514Z,64.08
2018-07-04T00:41:37.705Z,64.28
2018-07-04T00:42:03.850Z,64.18
2018-07-04T00:42:29.988Z,64.37
2018-07-04T00:42:56.121Z,64.18
2018-07-04T00:43:22.263Z,64.18
2018-07-04T00:43:48.402Z,64.08
2018-07-04T00:44:14.547Z,64.18
2018-07-04T00:44:40.682Z,64.28
2018-07-04T00:45:06.820Z,64.76
2018-07-04T00:45:32.956Z,65.05
2018-07-04T00:45:59.090Z,65.05
2018-07-04T00:46:25.228Z,65.05
2018-07-04T00:46:51.371Z,65.24
2018-07-04T00:47:17.510Z,65.14
2018-07-04T00:47:43.645Z,64.66
2018-07-04T00:48:09.782Z,64.47
2018-07-04T00:48:35.926Z,64.37
2018-07-04T00:49:02.065Z,64.66
2018-07-04T00:49:28.208Z,64.37
2018-07-04T00:49:54.340Z,64.18
2018-07-04T00:50:20.484Z,64.08
2018-07-04T00:50:46.650Z,64.18
2018-07-04T00:51:12.783Z,64.28
2018-07-04T00:51:38.949Z,64.37
2018-07-04T00:52:05.082Z,64.56
2018-07-04T00:52:31.221Z,64.76
2018-07-04T00:52:57.391Z,64.18
2018-07-04T00:53:23.529Z,64.28
2018-07-04T00:53:49.660Z,64.56
2018-07-04T00:54:15.841Z,64.18
2018-07-04T00:54:41.989Z,64.18
2018-07-04T00:55:08.125Z,64.28
2018-07-04T00:55:34.264Z,64.18
2018-07-04T00:56:00.410Z,64.28
2018-07-04T00:56:26.551Z,64.37
2018-07-04T00:56:52.714Z,63.98
2018-07-04T00:57:18.851Z,64.18
2018-07-04T00:57:44.987Z,63.98
2018-07-04T00:58:11.128Z,64.28
2018-07-04T00:58:37.260Z,65.05
2018-07-04T00:59:03.427Z,64.95
2018-07-04T00:59:29.574Z,64.82
2018-07-04T00:59:55.714Z,64.92
2018-07-04T01:00:21.849Z,64.95
2018-07-04T01:00:47.989Z,64.86
2018-07-04T01:01:14.132Z,65.53
2018-07-04T01:01:40.310Z,65.05
2018-07-04T01:02:06.456Z,65.43
2018-07-04T01:02:32.590Z,65.14
2018-07-04T01:02:58.728Z,65.3
2018-07-04T01:03:24.868Z,65.01
2018-07-04T01:03:51.004Z,65.01
2018-07-04T01:04:17.160Z,65.4
2018-07-04T01:04:43.301Z,65.4
2018-07-04T01:05:09.442Z,65.3
2018-07-04T01:05:35.605Z,65.01
2018-07-04T01:06:01.745Z,65.01
2018-07-04T01:06:27.887Z,65.4
2018-07-04T01:06:54.054Z,65.5
2018-07-04T01:07:20.192Z,65.4
2018-07-04T01:07:46.335Z,65.69
2018-07-04T01:08:12.493Z,65.59
2018-07-04T01:08:38.628Z,65.3
2018-07-04T01:09:04.772Z,65.69
2018-07-04T01:09:30.912Z,65.11
2018-07-04T01:09:57.048Z,65.88
2018-07-04T01:10:23.213Z,65.11
2018-07-04T01:10:49.345Z,65.59
2018-07-04T01:11:15.480Z,65.69
2018-07-04T01:11:41.618Z,65.5
2018-07-04T01:12:07.755Z,65.4
2018-07-04T01:12:33.901Z,65.88
2018-07-04T01:13:00.066Z,65.78
2018-07-04T01:13:26.198Z,65.88
2018-07-04T01:13:52.333Z,66.27
2018-07-04T01:14:18.476Z,65.78
2018-07-04T01:14:44.614Z,66.07
2018-07-04T01:15:10.750Z,65.78
2018-07-04T01:15:36.887Z,65.5
2018-07-04T01:16:03.030Z,65.59
2018-07-04T01:16:29.170Z,65.5
2018-07-04T01:16:55.333Z,65.11
2018-07-04T01:17:21.477Z,65.78
2018-07-04T01:17:47.616Z,65.88
2018-07-04T01:18:13.753Z,65.98
2018-07-04T01:18:39.888Z,65.98
2018-07-04T01:19:06.020Z,66.07
2018-07-04T01:19:32.164Z,66.07
2018-07-04T01:19:58.302Z,66.55
2018-07-04T01:20:24.492Z,66.07
2018-07-04T01:20:50.629Z,65.75
2018-07-04T01:21:16.768Z,66.52
2018-07-04T01:21:42.955Z,66.14
2018-07-04T01:22:09.067Z,66.27
2018-07-04T01:22:35.204Z,66.36
2018-07-04T01:23:01.366Z,66.46
2018-07-04T01:23:27.522Z,66.27
2018-07-04T01:23:53.661Z,66.42
2018-07-04T01:24:19.800Z,66.33
2018-07-04T01:24:45.930Z,66.04
2018-07-04T01:25:12.091Z,66.24
2018-07-04T01:25:38.235Z,66.81
2018-07-04T01:26:04.370Z,66.04
2018-07-04T01:26:30.538Z,66.24
2018-07-04T01:26:56.675Z,66.55
2018-07-04T01:27:22.810Z,66.81
2018-07-04T01:27:48.977Z,66.24
2018-07-04T01:28:15.113Z,66.33
2018-07-04T01:28:41.245Z,65.94
2018-07-04T01:29:07.380Z,66.81
2018-07-04T01:29:33.547Z,66.33
2018-07-04T01:29:59.680Z,66.71
2018-07-04T01:30:25.849Z,66.62
2018-07-04T01:30:51.978Z,66.42
2018-07-04T01:31:18.118Z,66.62
2018-07-04T01:31:44.252Z,66.14
2018-07-04T01:32:10.387Z,66.81
2018-07-04T01:32:36.527Z,66.33
2018-07-04T01:33:02.667Z,66.52
2018-07-04T01:33:28.817Z,66.71
2018-07-04T01:33:54.983Z,67
2018-07-04T01:34:21.115Z,67
2018-07-04T01:34:47.277Z,66.91
2018-07-04T01:35:13.418Z,66.81
2018-07-04T01:35:39.577Z,66.62
2018-07-04T01:36:05.720Z,66.52
2018-07-04T01:36:31.882Z,66.81
2018-07-04T01:36:58.032Z,66.52
2018-07-04T01:37:24.174Z,66.71
2018-07-04T01:37:50.330Z,66.33
2018-07-04T01:38:16.478Z,66.24
2018-07-04T01:38:42.616Z,66.33
2018-07-04T01:39:08.750Z,66.71
2018-07-04T01:39:34.886Z,66.52
2018-07-04T01:40:01.029Z,67.16
2018-07-04T01:40:27.167Z,67.16
2018-07-04T01:40:53.335Z,67.26
2018-07-04T01:41:19.479Z,67.74
2018-07-04T01:41:45.636Z,67.83
2018-07-04T01:42:11.770Z,67.83
2018-07-04T01:42:37.917Z,67.65
2018-07-04T01:43:04.075Z,67.65
2018-07-04T01:43:30.230Z,67.93
2018-07-04T01:43:56.368Z,67.74
2018-07-04T01:44:22.504Z,67.93
2018-07-04T01:44:48.645Z,67.26
2018-07-04T01:45:14.785Z,66.88
2018-07-04T01:45:40.929Z,67.16
2018-07-04T01:46:07.091Z,67.16
2018-07-04T01:46:33.229Z,67.07
2018-07-04T01:46:59.363Z,66.97
2018-07-04T01:47:25.504Z,67.45
2018-07-04T01:47:51.638Z,67.26
2018-07-04T01:48:17.785Z,67.45
2018-07-04T01:48:43.952Z,66.97
2018-07-04T01:49:10.088Z,67.35
2018-07-04T01:49:36.250Z,67.16
2018-07-04T01:50:02.391Z,67.16
2018-07-04T01:50:28.555Z,67.07
2018-07-04T01:50:54.688Z,67.16
2018-07-04T01:51:20.833Z,67.55
2018-07-04T01:51:46.968Z,67.45
2018-07-04T01:52:13.097Z,67.65
2018-07-04T01:52:39.262Z,67.26
2018-07-04T01:53:05.418Z,67.26
2018-07-04T01:53:31.583Z,67.45
2018-07-04T01:53:57.744Z,67.74
2018-07-04T01:54:23.886Z,67.74
2018-07-04T01:54:50.029Z,67.93
2018-07-04T01:55:16.166Z,67.74
2018-07-04T01:55:42.301Z,67.93
2018-07-04T01:56:08.457Z,67.65
2018-07-04T01:56:34.596Z,68.03
2018-07-04T01:57:00.737Z,68.03
2018-07-04T01:57:26.872Z,68.03
2018-07-04T01:57:53.014Z,67.93
2018-07-04T01:58:19.174Z,67.83
2018-07-04T01:58:45.309Z,67.83
2018-07-04T01:59:11.457Z,68.13
2018-07-04T01:59:37.616Z,67.83
2018-07-04T02:00:03.762Z,67.83
2018-07-04T02:00:29.914Z,67.55
2018-07-04T02:00:56.051Z,67.65
2018-07-04T02:01:22.196Z,67.55
2018-07-04T02:01:48.333Z,67.83
2018-07-04T02:02:14.468Z,67.74
2018-07-04T02:02:40.600Z,67.74
2018-07-04T02:03:06.736Z,67.65
2018-07-04T02:03:32.875Z,67.65
2018-07-04T02:03:59.013Z,67.74
2018-07-04T02:04:25.144Z,67.93
2018-07-04T02:04:51.289Z,68.22
2018-07-04T02:05:17.427Z,67.83
2018-07-04T02:05:43.561Z,67.74
2018-07-04T02:06:09.698Z,67.74
2018-07-04T02:06:35.841Z,67.74
2018-07-04T02:07:01.979Z,67.83
2018-07-04T02:07:28.115Z,67.55
2018-07-04T02:07:54.259Z,67.55
2018-07-04T02:08:20.395Z,67.83
2018-07-04T02:08:46.531Z,68.13
2018-07-04T02:09:12.671Z,68.03
2018-07-04T02:09:38.818Z,67.93
2018-07-04T02:10:04.947Z,68.03
2018-07-04T02:10:31.087Z,67.74
2018-07-04T02:10:57.223Z,67.55
2018-07-04T02:11:23.385Z,67.74
2018-07-04T02:11:49.521Z,68.03
2018-07-04T02:12:15.712Z,68.13
2018-07-04T02:12:41.847Z,67.65
2018-07-04T02:13:07.982Z,68.03
2018-07-04T02:13:34.121Z,68.03
2018-07-04T02:14:00.284Z,68.13
2018-07-04T02:14:26.420Z,67.74
2018-07-04T02:14:52.565Z,67.65
2018-07-04T02:15:18.704Z,67.93
2018-07-04T02:15:44.834Z,68.03
2018-07-04T02:16:10.967Z,67.74
2018-07-04T02:16:37.106Z,68.03
2018-07-04T02:17:03.243Z,68.13
2018-07-04T02:17:29.376Z,67.83
2018-07-04T02:17:55.518Z,67.55
2018-07-04T02:18:21.658Z,67.74
2018-07-04T02:18:47.799Z,67.55
2018-07-04T02:19:13.932Z,67.55
2018-07-04T02:19:40.088Z,67.74
2018-07-04T02:20:06.227Z,67.74
2018-07-04T02:20:32.362Z,67.55
2018-07-04T02:20:58.495Z,67.45
2018-07-04T02:21:24.637Z,66.97
2018-07-04T02:21:50.782Z,67.26
2018-07-04T02:22:16.917Z,67.26
2018-07-04T02:22:43.058Z,67.16
2018-07-04T02:23:09.223Z,67.26
2018-07-04T02:23:35.360Z,67.16
2018-07-04T02:24:01.521Z,67.16
2018-07-04T02:24:27.663Z,66.68
2018-07-04T02:24:53.797Z,67.07
2018-07-04T02:25:19.959Z,67.16
2018-07-04T02:25:46.091Z,67.16
2018-07-04T02:26:12.227Z,66.78
2018-07-04T02:26:38.372Z,66.97
2018-07-04T02:27:04.534Z,66.88
2018-07-04T02:27:30.673Z,67.16
2018-07-04T02:27:56.808Z,66.88
2018-07-04T02:28:22.947Z,67.35
2018-07-04T02:28:49.085Z,67.16
2018-07-04T02:29:15.247Z,67.16
2018-07-04T02:29:41.408Z,67.16
2018-07-04T02:30:07.539Z,66.97
2018-07-04T02:30:33.687Z,66.78
2018-07-04T02:30:59.846Z,66.78
2018-07-04T02:31:26.006Z,66.88
2018-07-04T02:31:52.147Z,66.88
2018-07-04T02:32:18.287Z,66.88
2018-07-04T02:32:44.452Z,66.88
2018-07-04T02:33:10.641Z,66.88
2018-07-04T02:33:36.784Z,67.26
2018-07-04T02:34:02.945Z,67.16
2018-07-04T02:34:29.128Z,67.07
2018-07-04T02:34:55.322Z,66.97
2018-07-04T02:35:21.473Z,67.16
2018-07-04T02:35:47.609Z,66.97
2018-07-04T02:36:13.794Z,67.35
2018-07-04T02:36:39.950Z,67.35
2018-07-04T02:37:06.112Z,67.16
2018-07-04T02:37:32.313Z,67.26
2018-07-04T02:37:58.493Z,67.16
2018-07-04T02:38:24.655Z,66.88
2018-07-04T02:38:50.815Z,66.97
2018-07-04T02:39:17.006Z,67.65
2018-07-04T02:39:43.162Z,67.74
2018-07-04T02:40:09.348Z,67.35
2018-07-04T02:40:35.481Z,67.55
2018-07-04T02:41:01.641Z,67.74
2018-07-04T02:41:27.778Z,67.74
2018-07-04T02:41:53.938Z,67.74
2018-07-04T02:42:20.080Z,67.93
2018-07-04T02:42:46.219Z,67.65
2018-07-04T02:43:12.386Z,67.55
2018-07-04T02:43:38.582Z,67.45
2018-07-04T02:44:04.731Z,67.55
2018-07-04T02:44:30.897Z,67.65
2018-07-04T02:44:57.141Z,67.65
2018-07-04T02:45:23.303Z,67.55
2018-07-04T02:45:49.440Z,67.74
2018-07-04T02:46:15.601Z,67.65
2018-07-04T02:46:41.759Z,67.55
2018-07-04T02:47:07.902Z,67.83
2018-07-04T02:47:34.044Z,68.13
2018-07-04T02:48:00.210Z,67.83
2018-07-04T02:48:26.369Z,67.8
2018-07-04T02:48:52.507Z,67.99
2018-07-04T02:49:18.668Z,67.8
2018-07-04T02:49:44.830Z,67.61
2018-07-04T02:50:11.023Z,67.65
2018-07-04T02:50:37.226Z,67.83
2018-07-04T02:51:03.376Z,68.13
2018-07-04T02:51:29.540Z,67.9
2018-07-04T02:51:55.727Z,67.61
2018-07-04T02:52:21.865Z,68.29
2018-07-04T02:52:48.051Z,68.29
2018-07-04T02:53:14.191Z,68.48
2018-07-04T02:53:40.352Z,68.38
2018-07-04T02:54:06.507Z,68.57
2018-07-04T02:54:32.650Z,68.76
2018-07-04T02:54:58.807Z,68.86
2018-07-04T02:55:24.955Z,68.38
2018-07-04T02:55:51.166Z,68.38
2018-07-04T02:56:17.325Z,68.57
2018-07-04T02:56:43.469Z,68.38
2018-07-04T02:57:09.649Z,68.57
2018-07-04T02:57:35.784Z,68.38
2018-07-04T02:58:01.917Z,68.38
2018-07-04T02:58:28.065Z,68.67
2018-07-04T02:58:54.195Z,68.57
2018-07-04T02:59:20.408Z,68.48
2018-07-04T02:59:46.521Z,68.86
2018-07-04T03:00:12.656Z,68.67
2018-07-04T03:00:38.882Z,68.67
2018-07-04T03:01:05.277Z,68.57
2018-07-04T03:01:31.672Z,68.76
2018-07-04T03:01:58.096Z,68.57
2018-07-04T03:02:24.277Z,68.67
2018-07-04T03:02:50.578Z,68.57
2018-07-04T03:03:16.937Z,68.67
2018-07-04T03:03:43.152Z,68.76
2018-07-04T03:04:09.552Z,68.29
2018-07-04T03:04:35.954Z,68.48
2018-07-04T03:05:02.159Z,68.76
2018-07-04T03:05:28.403Z,68.76
2018-07-04T03:05:54.684Z,68.57
2018-07-04T03:06:20.924Z,68.57
2018-07-04T03:06:47.064Z,68.67
2018-07-04T03:07:13.208Z,68.48
2018-07-04T03:07:39.342Z,68.57
2018-07-04T03:08:05.510Z,68.57
2018-07-04T03:08:31.666Z,68.76
2018-07-04T03:08:57.793Z,68.57
2018-07-04T03:09:23.930Z,68.67
2018-07-04T03:09:50.067Z,68.57
2018-07-04T03:10:16.204Z,68.76
2018-07-04T03:10:42.368Z,68.67
2018-07-04T03:11:08.505Z,68.57
2018-07-04T03:11:34.668Z,68.57
2018-07-04T03:12:00.850Z,68.29
2018-07-04T03:12:27.016Z,68.67
2018-07-04T03:12:53.153Z,68.57
2018-07-04T03:13:19.353Z,68.57
2018-07-04T03:13:45.519Z,68.57
2018-07-04T03:14:11.686Z,68.38
2018-07-04T03:14:37.834Z,68.48
2018-07-04T03:15:03.971Z,68.38
2018-07-04T03:15:30.133Z,68.57
2018-07-04T03:15:56.287Z,68.38
2018-07-04T03:16:22.451Z,68.57
2018-07-04T03:16:48.590Z,68.57
2018-07-04T03:17:14.808Z,68.67
2018-07-04T03:17:40.980Z,68.57
2018-07-04T03:18:07.124Z,68.67
2018-07-04T03:18:33.302Z,68.57
2018-07-04T03:18:59.471Z,68.67
2018-07-04T03:19:25.635Z,68.57
2018-07-04T03:19:51.828Z,68.57
2018-07-04T03:20:18.045Z,68.48
2018-07-04T03:20:44.222Z,68.48
2018-07-04T03:21:10.433Z,68.67
2018-07-04T03:21:36.573Z,68.48
2018-07-04T03:22:02.734Z,68.29
2018-07-04T03:22:28.896Z,68.57
2018-07-04T03:22:55.092Z,68.67
2018-07-04T03:23:21.232Z,68.19
2018-07-04T03:23:47.397Z,68.29
2018-07-04T03:24:13.538Z,68.48
2018-07-04T03:24:39.678Z,68.48
2018-07-04T03:25:05.868Z,68.57
2018-07-04T03:25:31.999Z,68.38
2018-07-04T03:25:58.139Z,68.57
2018-07-04T03:26:24.273Z,68.38
2018-07-04T03:26:50.466Z,68.57
2018-07-04T03:27:16.603Z,68.38
2018-07-04T03:27:42.766Z,68.38
2018-07-04T03:28:08.930Z,68.76
2018-07-04T03:28:35.069Z,68.67
2018-07-04T03:29:01.209Z,68.76
2018-07-04T03:29:27.347Z,68.38
2018-07-04T03:29:53.484Z,68.38
2018-07-04T03:30:19.619Z,68.48
2018-07-04T03:30:45.759Z,68.57
2018-07-04T03:31:11.942Z,68.57
2018-07-04T03:31:38.079Z,68.76
2018-07-04T03:32:04.248Z,68.76
2018-07-04T03:32:30.394Z,68.67
2018-07-04T03:32:56.608Z,68.57
2018-07-04T03:33:22.748Z,68.57
2018-07-04T03:33:48.891Z,68.57
2018-07-04T03:34:15.022Z,68.67
2018-07-04T03:34:41.163Z,68.67
2018-07-04T03:35:07.300Z,68.57
2018-07-04T03:35:33.446Z,68.67
2018-07-04T03:35:59.577Z,68.38
2018-07-04T03:36:25.714Z,68.57
2018-07-04T03:36:51.850Z,68.76
2018-07-04T03:37:17.994Z,68.67
2018-07-04T03:37:44.130Z,68.38
2018-07-04T03:38:10.275Z,68.38
2018-07-04T03:38:36.434Z,68.09
2018-07-04T03:39:02.572Z,68.57
2018-07-04T03:39:28.722Z,68.38
2018-07-04T03:39:54.860Z,68.38
2018-07-04T03:40:21.050Z,68.67
2018-07-04T03:40:47.187Z,68.76
2018-07-04T03:41:13.349Z,68.76
2018-07-04T03:41:39.484Z,68.86
2018-07-04T03:42:05.625Z,68.48
2018-07-04T03:42:31.766Z,68.48
2018-07-04T03:42:57.906Z,68.67
2018-07-04T03:43:24.041Z,68.67
2018-07-04T03:43:50.209Z,68.19
2018-07-04T03:44:16.375Z,68.38
2018-07-04T03:44:42.519Z,67.99
2018-07-04T03:45:08.661Z,68.48
2018-07-04T03:45:34.788Z,68.29
2018-07-04T03:46:00.928Z,67.99
2018-07-04T03:46:27.095Z,68.29
2018-07-04T03:46:53.228Z,68.19
2018-07-04T03:47:19.367Z,67.99
2018-07-04T03:47:45.508Z,68.29
2018-07-04T03:48:11.642Z,68.15
2018-07-04T03:48:37.805Z,68.76
2018-07-04T03:49:03.935Z,68.86
2018-07-04T03:49:30.107Z,68.76
2018-07-04T03:49:56.303Z,68.57
2018-07-04T03:50:22.402Z,68.57
2018-07-04T03:50:48.572Z,68.67
2018-07-04T03:51:14.710Z,68.38
2018-07-04T03:51:40.870Z,68.48
2018-07-04T03:52:07.032Z,68.76
2018-07-04T03:52:33.173Z,67.99
2018-07-04T03:52:59.311Z,68.38
2018-07-04T03:53:25.445Z,67.99
2018-07-04T03:53:51.582Z,68.09
2018-07-04T03:54:17.721Z,68.19
2018-07-04T03:54:43.865Z,68.19
2018-07-04T03:55:10.003Z,68.29
2018-07-04T03:55:36.164Z,67.9
2018-07-04T03:56:02.310Z,67.8
2018-07-04T03:56:28.467Z,67.8
2018-07-04T03:56:54.629Z,67.99
2018-07-04T03:57:20.790Z,67.99
2018-07-04T03:57:46.954Z,67.51
2018-07-04T03:58:13.092Z,67.51
2018-07-04T03:58:39.252Z,67.61
2018-07-04T03:59:05.386Z,67.51
2018-07-04T03:59:31.553Z,67.51
2018-07-04T03:59:57.712Z,67.51
2018-07-04T04:00:23.854Z,67.42
2018-07-04T04:00:49.990Z,67.51
2018-07-04T04:01:16.160Z,67.71
2018-07-04T04:01:42.296Z,67.61
2018-07-04T04:02:08.469Z,67.9
2018-07-04T04:02:34.606Z,67.99
2018-07-04T04:03:00.774Z,67.42
2018-07-04T04:03:26.899Z,67.32
2018-07-04T04:03:53.036Z,67.51
2018-07-04T04:04:19.199Z,66.74
2018-07-04T04:04:45.340Z,66.94
2018-07-04T04:05:11.494Z,67.51
2018-07-04T04:05:37.634Z,67.42
2018-07-04T04:06:03.763Z,67.22
2018-07-04T04:06:29.898Z,67.13
2018-07-04T04:06:56.041Z,67.03
2018-07-04T04:07:22.229Z,67.03
2018-07-04T04:07:48.321Z,67.51
2018-07-04T04:08:14.452Z,66.94
2018-07-04T04:08:40.601Z,67.22
2018-07-04T04:09:06.759Z,67.32
2018-07-04T04:09:32.903Z,67.42
2018-07-04T04:09:59.046Z,67.42
2018-07-04T04:10:25.207Z,67.13
2018-07-04T04:10:51.343Z,67.13
2018-07-04T04:11:17.482Z,67.51
2018-07-04T04:11:43.614Z,67.16
2018-07-04T04:12:09.752Z,67.07
2018-07-04T04:12:35.934Z,67.03
2018-07-04T04:13:02.067Z,66.84
2018-07-04T04:13:28.213Z,66.84
2018-07-04T04:13:54.355Z,66.65
2018-07-04T04:14:20.515Z,66.84
2018-07-04T04:14:46.650Z,66.55
2018-07-04T04:15:12.791Z,66.55
2018-07-04T04:15:38.929Z,66.65
2018-07-04T04:16:05.060Z,66.55
2018-07-04T04:16:31.198Z,66.55
2018-07-04T04:16:57.333Z,66.49
2018-07-04T04:17:23.477Z,66.46
2018-07-04T04:17:49.620Z,66.49
2018-07-04T04:18:15.758Z,66.55
2018-07-04T04:18:41.921Z,66.65
2018-07-04T04:19:08.058Z,66.3
2018-07-04T04:19:34.197Z,66.74
2018-07-04T04:20:00.336Z,67.03
2018-07-04T04:20:26.474Z,67.13
2018-07-04T04:20:52.612Z,67.22
2018-07-04T04:21:18.751Z,67.13
2018-07-04T04:21:44.885Z,66.84
2018-07-04T04:22:11.031Z,67.13
2018-07-04T04:22:37.193Z,67.32
2018-07-04T04:23:03.333Z,67.13
2018-07-04T04:23:29.472Z,67.13
2018-07-04T04:23:55.641Z,67.13
2018-07-04T04:24:21.775Z,67.35
2018-07-04T04:24:47.944Z,67.42
2018-07-04T04:25:14.104Z,66.94
2018-07-04T04:25:40.246Z,67.16
2018-07-04T04:26:06.378Z,67.45
2018-07-04T04:26:32.542Z,66.36
2018-07-04T04:26:58.686Z,66.74
2018-07-04T04:27:24.843Z,66.97
2018-07-04T04:27:50.981Z,67.45
2018-07-04T04:28:17.125Z,66.39
2018-07-04T04:28:43.260Z,66.49
2018-07-04T04:29:09.392Z,66.68
2018-07-04T04:29:35.528Z,66.88
2018-07-04T04:30:01.664Z,66.97
2018-07-04T04:30:27.802Z,66.68
2018-07-04T04:30:53.935Z,66.68
2018-07-04T04:31:20.098Z,66.78
2018-07-04T04:31:46.228Z,66.78
2018-07-04T04:32:12.370Z,66.58
2018-07-04T04:32:38.507Z,66.58
2018-07-04T04:33:04.646Z,66.88
2018-07-04T04:33:30.784Z,66.68
2018-07-04T04:33:57.060Z,66.88
2018-07-04T04:34:23.112Z,66.68
2018-07-04T04:34:49.246Z,66.3
2018-07-04T04:35:15.380Z,65.81
2018-07-04T04:35:41.523Z,66.3
2018-07-04T04:36:07.661Z,66.1
2018-07-04T04:36:33.804Z,66.1
2018-07-04T04:36:59.935Z,66.3
2018-07-04T04:37:26.083Z,66.3
2018-07-04T04:37:52.221Z,66.49
2018-07-04T04:38:18.386Z,65.72
2018-07-04T04:38:44.519Z,65.91
2018-07-04T04:39:10.686Z,65.81
2018-07-04T04:39:36.818Z,65.81
2018-07-04T04:40:02.968Z,65.91
2018-07-04T04:40:29.095Z,65.81
2018-07-04T04:40:55.237Z,65.33
2018-07-04T04:41:21.377Z,65.33
2018-07-04T04:41:47.519Z,64.95
2018-07-04T04:42:13.663Z,65.08
2018-07-04T04:42:39.825Z,65.33
2018-07-04T04:43:05.991Z,65.37
2018-07-04T04:43:32.123Z,65.17
2018-07-04T04:43:58.262Z,65.17
2018-07-04T04:44:24.396Z,64.95
2018-07-04T04:44:50.534Z,65.27
2018-07-04T04:45:16.674Z,65.05
2018-07-04T04:45:42.843Z,65.08
2018-07-04T04:46:09.138Z,65.05
2018-07-04T04:46:35.505Z,65.37
2018-07-04T04:47:01.731Z,64.89
2018-07-04T04:47:28.030Z,64.59
2018-07-04T04:47:54.199Z,64.15
2018-07-04T04:48:20.428Z,63.76
2018-07-04T04:48:46.539Z,62.83
2018-07-04T04:49:12.675Z,62.06
2018-07-04T04:49:38.824Z,61.71
2018-07-04T04:50:04.970Z,61.41
2018-07-04T04:50:31.112Z,60.38
2018-07-04T04:50:57.252Z,59.42
2018-07-04T04:51:23.388Z,58.87
2018-07-04T04:51:49.527Z,58.77
2018-07-04T04:52:15.662Z,58.39
2018-07-04T04:52:41.800Z,58.39
2018-07-04T04:53:07.943Z,57.26
2018-07-04T04:53:34.079Z,56.77
2018-07-04T04:54:00.243Z,56.87
2018-07-04T04:54:26.383Z,56.39
2018-07-04T04:54:52.649Z,56.1
2018-07-04T04:55:18.683Z,56.1
2018-07-04T04:55:44.842Z,56.48
2018-07-04T04:56:10.982Z,56.94
2018-07-04T04:56:37.122Z,56.84
2018-07-04T04:57:03.253Z,57.04
2018-07-04T04:57:29.392Z,57.71
2018-07-04T04:57:55.537Z,58
2018-07-04T04:58:21.679Z,57.81
2018-07-04T04:58:47.839Z,58.1
2018-07-04T04:59:14.001Z,57.32
2018-07-04T04:59:40.143Z,57.32
2018-07-04T05:00:06.300Z,57.62
2018-07-04T05:00:32.437Z,57.62
2018-07-04T05:00:58.607Z,57.26
2018-07-04T05:01:24.740Z,56.68
2018-07-04T05:01:50.902Z,56.87
2018-07-04T05:02:17.040Z,56.68
2018-07-04T05:02:43.178Z,56.87
2018-07-04T05:03:09.324Z,56.68
2018-07-04T05:03:35.485Z,57.16
2018-07-04T05:04:01.628Z,56.87
2018-07-04T05:04:27.764Z,56.96
2018-07-04T05:04:53.906Z,57.16
2018-07-04T05:05:20.064Z,56.94
2018-07-04T05:05:46.223Z,56.74
2018-07-04T05:06:12.364Z,57.14
2018-07-04T05:06:38.509Z,57.71
2018-07-04T05:07:04.653Z,57.32
2018-07-04T05:07:30.807Z,58
2018-07-04T05:07:57.014Z,57.62
2018-07-04T05:08:23.095Z,57.71
2018-07-04T05:08:49.229Z,58.1
2018-07-04T05:09:15.373Z,58.07
2018-07-04T05:09:41.504Z,57.97
2018-07-04T05:10:07.650Z,58.45
2018-07-04T05:10:33.790Z,58.94
2018-07-04T05:10:59.952Z,58.45
2018-07-04T05:11:26.094Z,58.55
2018-07-04T05:11:52.237Z,58.55
2018-07-04T05:12:18.376Z,58.55
2018-07-04T05:12:44.509Z,58.65
2018-07-04T05:13:10.706Z,59.03
2018-07-04T05:13:36.845Z,58.75
2018-07-04T05:14:02.984Z,58.94
2018-07-04T05:14:29.127Z,58.84
2018-07-04T05:14:55.268Z,58.75
2018-07-04T05:15:21.453Z,59.1
2018-07-04T05:15:47.788Z,59.03
2018-07-04T05:16:13.773Z,59.13
2018-07-04T05:16:39.914Z,58.84
2018-07-04T05:17:06.044Z,59.1
2018-07-04T05:17:32.182Z,58.84
2018-07-04T05:17:58.327Z,59.13
2018-07-04T05:18:24.489Z,59.1
2018-07-04T05:18:50.632Z,59.23
2018-07-04T05:19:16.792Z,59.2
2018-07-04T05:19:42.936Z,59.1
2018-07-04T05:20:09.072Z,59.97
2018-07-04T05:20:35.214Z,59.87
2018-07-04T05:21:01.397Z,60.16
2018-07-04T05:21:27.510Z,59.87
2018-07-04T05:21:53.659Z,59.58
2018-07-04T05:22:19.824Z,59.58
2018-07-04T05:22:46.046Z,59.78
2018-07-04T05:23:12.160Z,59.78
2018-07-04T05:23:38.327Z,59.8
2018-07-04T05:24:04.464Z,59.8
2018-07-04T05:24:30.607Z,59.23
2018-07-04T05:24:56.745Z,58.84
2018-07-04T05:25:22.888Z,58.84
2018-07-04T05:25:49.031Z,59.32
2018-07-04T05:26:15.169Z,59.2
2018-07-04T05:26:41.311Z,59.97
2018-07-04T05:27:07.471Z,59.39
2018-07-04T05:27:33.600Z,60.16
2018-07-04T05:27:59.767Z,60.45
2018-07-04T05:28:25.920Z,60.83
2018-07-04T05:28:52.063Z,60.35
2018-07-04T05:29:18.234Z,60.55
2018-07-04T05:29:44.394Z,60
2018-07-04T05:30:10.565Z,59.8
2018-07-04T05:30:36.727Z,59.61
2018-07-04T05:31:02.865Z,59.32
2018-07-04T05:31:29.002Z,59.03
2018-07-04T05:31:55.146Z,59.03
2018-07-04T05:32:21.283Z,59.03
2018-07-04T05:32:47.425Z,58.94
2018-07-04T05:33:13.560Z,58.84
2018-07-04T05:33:39.727Z,58.84
2018-07-04T05:34:05.863Z,59.03
2018-07-04T05:34:32.007Z,59.03
2018-07-04T05:34:58.195Z,59.13
2018-07-04T05:35:24.335Z,58.68
2018-07-04T05:35:50.485Z,58.58
2018-07-04T05:36:16.620Z,58.77
2018-07-04T05:36:42.784Z,58.97
2018-07-04T05:37:08.924Z,58.1
2018-07-04T05:37:35.190Z,58